Time,TemperatureF,DewpointF,PressureIn,WindDirection,WindDirectionDegrees,WindSpeedMPH,WindSpeedGustMPH,Humidity,HourlyPrecipIn,Conditions,Clouds,dailyrainin,SoftwareType,DateUTC
2013-01-28 00:00:00,31.6,30.1,30.57,SSW,192,0.0,2.0,94,0.04,,,0.00,WeatherCatV1.02B3,2013-01-28 05:00:00,
2013-01-28 00:01:00,31.7,30.2,30.57,SSW,193,0.0,0.0,94,0.04,,,0.00,WeatherCatV1.02B3,2013-01-28 05:01:00,
2013-01-28 00:02:00,31.7,30.2,30.57,SSW,193,0.0,0.0,94,0.04,,,0.00,WeatherCatV1.02B3,2013-01-28 05:02:00,
2013-01-28 00:07:00,31.7,30.2,30.57,WSW,253,0.0,0.0,94,0.04,,,0.00,WeatherCatV1.02B3,2013-01-28 05:07:00,
2013-01-28 00:12:00,31.8,30.5,30.58,WSW,253,0.0,0.0,95,0.00,,,0.00,WeatherCatV1.02B3,2013-01-28 05:12:00,
2013-01-28 00:17:00,31.9,30.6,30.58,ESE,123,0.0,3.0,95,0.00,,,0.00,WeatherCatV1.02B3,2013-01-28 05:17:00,
2013-01-28 00:22:00,32.0,30.7,30.58,WNW,284,1.0,4.0,95,0.00,,,0.00,WeatherCatV1.02B3,2013-01-28 05:22:00,
2013-01-28 00:27:00,32.1,30.8,30.58,WNW,283,0.0,3.0,95,0.00,,,0.00,WeatherCatV1.02B3,2013-01-28 05:27:00,
2013-01-28 00:32:00,32.1,30.8,30.58,WNW,293,0.0,2.0,95,0.00,,,0.00,WeatherCatV1.02B3,2013-01-28 05:32:00,
2013-01-28 00:37:00,32.1,30.6,30.57,SSW,207,0.0,1.0,94,0.00,,,0.00,WeatherCatV1.02B3,2013-01-28 05:37:00,
2013-01-28 00:42:00,32.1,30.6,30.57,South,183,0.0,1.0,94,0.00,,,0.00,WeatherCatV1.02B3,2013-01-28 05:42:00,
2013-01-28 00:47:00,32.1,30.6,30.58,West,267,1.0,2.0,94,0.00,,,0.00,WeatherCatV1.02B3,2013-01-28 05:47:00,
2013-01-28 00:52:00,32.1,30.6,30.58,West,266,0.0,3.0,94,0.00,,,0.00,WeatherCatV1.02B3,2013-01-28 05:52:00,
2013-01-28 00:57:00,32.0,30.5,30.58,West,267,1.0,2.0,94,0.00,,,0.00,WeatherCatV1.02B3,2013-01-28 05:57:00,
2013-01-28 01:02:00,32.0,32.0,30.58,SE,140,2.0,3.0,100,0.00,,,0.00,WeatherCatV1.02B3,2013-01-28 06:02:00,
2013-01-28 01:07:00,32.0,30.5,30.58,SW,221,0.0,0.0,94,0.00,,,0.00,WeatherCatV1.02B3,2013-01-28 06:07:00,
2013-01-28 01:12:00,32.0,30.5,30.58,SW,229,0.0,3.0,94,0.00,,,0.00,WeatherCatV1.02B3,2013-01-28 06:12:00,
2013-01-28 01:17:00,32.0,30.5,30.58,WSW,240,0.0,1.0,94,0.00,,,0.00,WeatherCatV1.02B3,2013-01-28 06:17:00,
2013-01-28 01:22:00,32.1,30.6,30.57,South,186,0.0,4.0,94,0.00,,,0.00,WeatherCatV1.02B3,2013-01-28 06:22:00,
2013-01-28 01:27:00,32.1,30.6,30.57,SE,141,2.0,5.0,94,0.00,,,0.00,WeatherCatV1.02B3,2013-01-28 06:27:00,
2013-01-28 01:32:00,32.1,30.6,30.57,SW,217,0.0,5.0,94,0.00,,,0.00,WeatherCatV1.02B3,2013-01-28 06:32:00,
2013-01-28 01:37:00,32.1,30.3,30.57,South,170,0.0,4.0,93,0.00,,,0.00,WeatherCatV1.02B3,2013-01-28 06:37:00,
2013-01-28 01:42:00,32.2,30.4,30.58,SW,221,0.0,2.0,93,0.00,,,0.00,WeatherCatV1.02B3,2013-01-28 06:42:00,
2013-01-28 01:47:00,32.3,30.5,30.57,SW,214,0.0,2.0,93,0.00,,,0.00,WeatherCatV1.02B3,2013-01-28 06:47:00,
2013-01-28 01:52:00,32.4,30.3,30.57,SE,134,0.0,3.0,92,0.00,,,0.00,WeatherCatV1.02B3,2013-01-28 06:52:00,
2013-01-28 01:57:00,32.5,30.2,30.56,South,178,2.0,2.0,91,0.00,,,0.00,WeatherCatV1.02B3,2013-01-28 06:57:00,
2013-01-28 02:02:00,32.6,30.0,30.56,SE,129,3.0,7.0,90,0.00,,,0.00,WeatherCatV1.02B3,2013-01-28 07:02:00,
2013-01-28 02:07:00,32.6,29.7,30.56,South,190,0.0,2.0,89,0.00,,,0.00,WeatherCatV1.02B3,2013-01-28 07:07:00,
2013-01-28 02:12:00,32.7,30.1,30.56,South,185,0.0,0.0,90,0.00,,,0.00,WeatherCatV1.02B3,2013-01-28 07:12:00,
2013-01-28 02:17:00,32.6,29.4,30.55,South,185,0.0,2.0,88,0.00,,,0.00,WeatherCatV1.02B3,2013-01-28 07:17:00,
2013-01-28 02:22:00,32.6,29.7,30.55,SSE,157,0.0,2.0,89,0.00,,,0.00,WeatherCatV1.02B3,2013-01-28 07:22:00,
2013-01-28 02:27:00,32.5,29.6,30.56,South,175,0.0,2.0,89,0.00,,,0.00,WeatherCatV1.02B3,2013-01-28 07:27:00,
2013-01-28 02:32:00,32.5,30.2,30.56,South,173,0.0,1.0,91,0.00,,,0.00,WeatherCatV1.02B3,2013-01-28 07:32:00,
2013-01-28 02:37:00,32.3,30.0,30.57,WSW,252,0.0,0.0,91,0.00,,,0.00,WeatherCatV1.02B3,2013-01-28 07:37:00,
2013-01-28 02:42:00,32.3,29.7,30.57,NNW,331,0.0,0.0,90,0.00,,,0.00,WeatherCatV1.02B3,2013-01-28 07:42:00,
2013-01-28 02:47:00,32.2,29.9,30.57,SSE,148,0.0,4.0,91,0.00,,,0.00,WeatherCatV1.02B3,2013-01-28 07:47:00,
2013-01-28 02:52:00,32.4,29.8,30.57,SSW,196,4.0,9.0,90,0.00,,,0.00,WeatherCatV1.02B3,2013-01-28 07:52:00,
2013-01-28 02:57:00,32.6,29.7,30.56,SSE,160,0.0,5.0,89,0.00,,,0.00,WeatherCatV1.02B3,2013-01-28 07:57:00,
2013-01-28 03:02:00,32.8,29.6,30.57,SSE,161,4.0,4.0,88,0.00,,,0.00,WeatherCatV1.02B3,2013-01-28 08:02:00,
2013-01-28 03:07:00,32.8,29.9,30.57,SSE,150,0.0,0.0,89,0.00,,,0.00,WeatherCatV1.02B3,2013-01-28 08:07:00,
2013-01-28 03:12:00,32.7,30.1,30.56,South,188,0.0,1.0,90,0.00,,,0.00,WeatherCatV1.02B3,2013-01-28 08:12:00,
2013-01-28 03:17:00,32.6,29.7,30.56,South,183,0.0,8.0,89,0.00,,,0.00,WeatherCatV1.02B3,2013-01-28 08:17:00,
2013-01-28 03:22:00,32.6,29.7,30.57,SSW,200,0.0,1.0,89,0.00,,,0.00,WeatherCatV1.02B3,2013-01-28 08:22:00,
2013-01-28 03:27:00,32.7,29.5,30.56,SSW,193,5.0,6.0,88,0.00,,,0.00,WeatherCatV1.02B3,2013-01-28 08:27:00,
2013-01-28 03:32:00,32.9,28.9,30.56,SSE,155,0.0,7.0,85,0.00,,,0.00,WeatherCatV1.02B3,2013-01-28 08:32:00,
2013-01-28 03:37:00,33.1,29.4,30.56,SW,226,0.0,6.0,86,0.00,,,0.00,WeatherCatV1.02B3,2013-01-28 08:37:00,
2013-01-28 03:42:00,33.1,29.9,30.57,SW,225,1.0,2.0,88,0.00,,,0.00,WeatherCatV1.02B3,2013-01-28 08:42:00,
2013-01-28 03:47:00,32.9,29.7,30.56,South,178,2.0,5.0,88,0.00,,,0.00,WeatherCatV1.02B3,2013-01-28 08:47:00,
2013-01-28 03:52:00,32.9,29.5,30.56,ESE,116,1.0,3.0,87,0.00,,,0.00,WeatherCatV1.02B3,2013-01-28 08:52:00,
2013-01-28 03:57:00,33.0,29.6,30.56,SE,137,0.0,3.0,87,0.00,,,0.00,WeatherCatV1.02B3,2013-01-28 08:57:00,
2013-01-28 04:02:00,33.0,29.6,30.56,SSW,192,0.0,6.0,87,0.00,,,0.00,WeatherCatV1.02B3,2013-01-28 09:02:00,
2013-01-28 04:07:00,32.9,29.5,30.57,SSW,200,1.0,7.0,87,0.00,,,0.00,WeatherCatV1.02B3,2013-01-28 09:07:00,
2013-01-28 04:12:00,32.9,29.5,30.56,South,186,7.0,7.0,87,0.00,,,0.00,WeatherCatV1.02B3,2013-01-28 09:12:00,
2013-01-28 04:17:00,33.0,29.0,30.56,South,182,1.0,4.0,85,0.00,,,0.00,WeatherCatV1.02B3,2013-01-28 09:17:00,
2013-01-28 04:22:00,33.2,28.9,30.56,SSE,164,0.0,4.0,84,0.00,,,0.00,WeatherCatV1.02B3,2013-01-28 09:22:00,
2013-01-28 04:27:00,33.3,29.0,30.56,South,182,0.0,4.0,84,0.00,,,0.00,WeatherCatV1.02B3,2013-01-28 09:27:00,
2013-01-28 04:32:00,33.3,29.3,30.56,South,182,0.0,2.0,85,0.00,,,0.00,WeatherCatV1.02B3,2013-01-28 09:32:00,
2013-01-28 04:37:00,33.3,29.9,30.56,NNE,19,0.0,2.0,87,0.00,,,0.00,WeatherCatV1.02B3,2013-01-28 09:37:00,
2013-01-28 04:42:00,33.2,29.8,30.55,SSW,207,1.0,2.0,87,0.00,,,0.00,WeatherCatV1.02B3,2013-01-28 09:42:00,
2013-01-28 04:47:00,33.2,29.8,30.55,SSW,208,0.0,3.0,87,0.00,,,0.00,WeatherCatV1.02B3,2013-01-28 09:47:00,
2013-01-28 04:52:00,33.3,29.3,30.55,NW,309,1.0,3.0,85,0.00,,,0.00,WeatherCatV1.02B3,2013-01-28 09:52:00,
2013-01-28 04:57:00,33.8,28.9,30.55,SSE,155,0.0,5.0,82,0.00,,,0.00,WeatherCatV1.02B3,2013-01-28 09:57:00,
2013-01-28 05:02:00,34.2,30.2,30.55,South,190,2.0,4.0,85,0.00,,,0.00,WeatherCatV1.02B3,2013-01-28 10:02:00,
2013-01-28 05:07:00,34.4,29.5,30.56,South,190,0.0,5.0,82,0.00,,,0.00,WeatherCatV1.02B3,2013-01-28 10:07:00,
2013-01-28 05:12:00,34.5,29.6,30.56,South,173,2.0,5.0,82,0.00,,,0.00,WeatherCatV1.02B3,2013-01-28 10:12:00,
2013-01-28 05:17:00,34.9,29.4,30.57,SSE,164,1.0,6.0,80,0.00,,,0.00,WeatherCatV1.02B3,2013-01-28 10:17:00,
2013-01-28 05:22:00,35.2,30.0,30.57,South,180,5.0,5.0,81,0.00,,,0.00,WeatherCatV1.02B3,2013-01-28 10:22:00,
2013-01-28 05:27:00,35.2,29.7,30.57,South,184,3.0,5.0,80,0.00,,,0.00,WeatherCatV1.02B3,2013-01-28 10:27:00,
2013-01-28 05:32:00,35.3,29.8,30.56,South,187,5.0,6.0,80,0.00,,,0.00,WeatherCatV1.02B3,2013-01-28 10:32:00,
2013-01-28 05:37:00,35.5,30.0,30.56,South,188,4.0,5.0,80,0.00,,,0.00,WeatherCatV1.02B3,2013-01-28 10:37:00,
2013-01-28 05:42:00,35.7,30.5,30.56,South,178,5.0,5.0,81,0.00,,,0.00,WeatherCatV1.02B3,2013-01-28 10:42:00,
2013-01-28 05:47:00,35.9,31.0,30.57,SW,217,1.0,6.0,82,0.00,,,0.00,WeatherCatV1.02B3,2013-01-28 10:47:00,
2013-01-28 05:52:00,36.0,31.3,30.57,South,184,4.0,4.0,83,0.00,,,0.00,WeatherCatV1.02B3,2013-01-28 10:52:00,
2013-01-28 05:57:00,36.1,31.7,30.57,SSW,192,1.0,4.0,84,0.00,,,0.00,WeatherCatV1.02B3,2013-01-28 10:57:00,
2013-01-28 06:02:00,35.9,31.5,30.57,WSW,242,0.0,2.0,84,0.00,,,0.00,WeatherCatV1.02B3,2013-01-28 11:02:00,
2013-01-28 06:07:00,35.3,31.0,30.57,NNW,328,0.0,5.0,84,0.00,,,0.00,WeatherCatV1.02B3,2013-01-28 11:07:00,
2013-01-28 06:12:00,34.5,30.5,30.58,NNW,327,0.0,1.0,85,0.00,,,0.00,WeatherCatV1.02B3,2013-01-28 11:12:00,
2013-01-28 06:17:00,34.1,30.4,30.57,NNW,327,0.0,0.0,86,0.00,,,0.00,WeatherCatV1.02B3,2013-01-28 11:17:00,
2013-01-28 06:22:00,33.8,30.6,30.58,NNW,328,0.0,2.0,88,0.00,,,0.00,WeatherCatV1.02B3,2013-01-28 11:22:00,
2013-01-28 06:27:00,34.1,31.2,30.58,NNW,327,0.0,0.0,89,0.00,,,0.00,WeatherCatV1.02B3,2013-01-28 11:27:00,
2013-01-28 06:33:00,34.4,31.5,30.58,SSE,163,0.0,2.0,89,0.00,,,0.00,WeatherCatV1.02B3,2013-01-28 11:33:00,
2013-01-28 06:38:00,34.4,31.5,30.58,South,170,3.0,5.0,89,0.00,,,0.00,WeatherCatV1.02B3,2013-01-28 11:38:00,
2013-01-28 06:43:00,34.5,31.3,30.58,SSW,212,3.0,5.0,88,0.00,,,0.00,WeatherCatV1.02B3,2013-01-28 11:43:00,
2013-01-28 06:48:00,34.8,31.9,30.58,SSE,152,8.0,10.0,89,0.00,,,0.00,WeatherCatV1.02B3,2013-01-28 11:48:00,
2013-01-28 06:53:00,35.3,32.1,30.57,South,171,2.0,5.0,88,0.00,,,0.00,WeatherCatV1.02B3,2013-01-28 11:53:00,
2013-01-28 06:58:00,35.5,32.0,30.58,South,171,0.0,3.0,87,0.00,,,0.00,WeatherCatV1.02B3,2013-01-28 11:58:00,
2013-01-28 07:03:00,35.4,32.2,30.58,SW,227,3.0,4.0,88,0.00,,,0.00,WeatherCatV1.02B3,2013-01-28 12:03:00,
2013-01-28 07:08:00,34.9,31.7,30.57,SSW,203,4.0,5.0,88,0.00,,,0.00,WeatherCatV1.02B3,2013-01-28 12:08:00,
2013-01-28 07:13:00,34.4,31.5,30.57,SSW,209,3.0,5.0,89,0.00,,,0.00,WeatherCatV1.02B3,2013-01-28 12:13:00,
2013-01-28 07:18:00,34.0,31.1,30.58,South,188,3.0,6.0,89,0.00,,,0.00,WeatherCatV1.02B3,2013-01-28 12:18:00,
2013-01-28 07:23:00,34.1,31.8,30.58,South,181,4.0,5.0,91,0.00,,,0.00,WeatherCatV1.02B3,2013-01-28 12:23:00,
2013-01-28 07:28:00,34.6,32.2,30.58,South,181,2.0,3.0,91,0.00,,,0.00,WeatherCatV1.02B3,2013-01-28 12:28:00,
2013-01-28 07:33:00,35.1,33.0,30.58,SSE,168,4.0,4.0,92,0.00,,,0.00,WeatherCatV1.02B3,2013-01-28 12:33:00,
2013-01-28 07:38:00,36.4,34.3,30.57,South,169,3.0,6.0,92,0.00,,,0.00,WeatherCatV1.02B3,2013-01-28 12:38:00,
2013-01-28 07:43:00,37.4,34.7,30.57,South,175,2.0,4.0,90,0.00,,,0.00,WeatherCatV1.02B3,2013-01-28 12:43:00,
2013-01-28 07:48:00,38.0,35.1,30.57,South,172,2.0,3.0,89,0.00,,,0.00,WeatherCatV1.02B3,2013-01-28 12:48:00,
2013-01-28 07:53:00,38.3,35.3,30.57,South,186,0.0,3.0,89,0.00,,,0.00,WeatherCatV1.02B3,2013-01-28 12:53:00,
2013-01-28 07:58:00,39.2,36.2,30.57,South,187,0.0,0.0,89,0.00,,,0.00,WeatherCatV1.02B3,2013-01-28 12:58:00,
2013-01-28 08:03:00,39.6,35.8,30.57,SW,219,3.0,3.0,86,0.00,,,0.00,WeatherCatV1.02B3,2013-01-28 13:03:00,
2013-01-28 08:08:00,39.2,35.4,30.58,South,180,3.0,6.0,86,0.00,,,0.00,WeatherCatV1.02B3,2013-01-28 13:08:00,
2013-01-28 08:13:00,39.0,35.8,30.58,South,178,3.0,4.0,88,0.00,,,0.00,WeatherCatV1.02B3,2013-01-28 13:13:00,
2013-01-28 08:18:00,38.9,35.7,30.58,South,176,3.0,4.0,88,0.00,,,0.00,WeatherCatV1.02B3,2013-01-28 13:18:00,
2013-01-28 08:23:00,38.8,35.8,30.57,SSE,168,2.0,4.0,89,0.00,,,0.00,WeatherCatV1.02B3,2013-01-28 13:23:00,
2013-01-28 08:28:00,39.1,36.4,30.57,South,173,4.0,4.0,90,0.00,,,0.00,WeatherCatV1.02B3,2013-01-28 13:28:00,
2013-01-28 08:33:00,39.3,36.6,30.58,South,169,0.0,0.0,90,0.00,,,0.00,WeatherCatV1.02B3,2013-01-28 13:33:00,
2013-01-28 08:38:00,39.6,37.2,30.58,South,172,0.0,2.0,91,0.00,,,0.00,WeatherCatV1.02B3,2013-01-28 13:38:00,
2013-01-28 08:43:00,39.7,37.0,30.58,South,182,3.0,4.0,90,0.00,,,0.00,WeatherCatV1.02B3,2013-01-28 13:43:00,
2013-01-28 08:48:00,39.5,36.8,30.58,SSW,198,2.0,4.0,90,0.00,,,0.00,WeatherCatV1.02B3,2013-01-28 13:48:00,
2013-01-28 08:53:00,39.7,37.3,30.58,SSW,196,0.0,3.0,91,0.00,,,0.00,WeatherCatV1.02B3,2013-01-28 13:53:00,
2013-01-28 08:58:00,40.1,38.2,30.58,South,190,0.0,6.0,93,0.00,,,0.00,WeatherCatV1.02B3,2013-01-28 13:58:00,
2013-01-28 09:03:00,40.6,38.7,30.57,SSE,157,2.0,3.0,93,0.00,,,0.00,WeatherCatV1.02B3,2013-01-28 14:03:00,
2013-01-28 09:08:00,41.0,39.1,30.57,SSW,196,0.0,3.0,93,0.00,,,0.00,WeatherCatV1.02B3,2013-01-28 14:08:00,
2013-01-28 09:13:00,41.8,40.2,30.58,SSW,207,5.0,5.0,94,0.00,,,0.00,WeatherCatV1.02B3,2013-01-28 14:13:00,
2013-01-28 09:18:00,42.3,40.7,30.57,South,188,3.0,3.0,94,0.00,,,0.00,WeatherCatV1.02B3,2013-01-28 14:18:00,
2013-01-28 09:23:00,42.7,41.1,30.57,WSW,240,2.0,5.0,94,0.00,,,0.00,WeatherCatV1.02B3,2013-01-28 14:23:00,
2013-01-28 09:28:00,42.8,41.2,30.57,SSW,198,0.0,7.0,94,0.00,,,0.00,WeatherCatV1.02B3,2013-01-28 14:28:00,
2013-01-28 09:33:00,42.9,41.3,30.57,SSW,209,3.0,4.0,94,0.00,,,0.00,WeatherCatV1.02B3,2013-01-28 14:33:00,
2013-01-28 09:38:00,43.0,41.4,30.57,SSW,208,4.0,5.0,94,0.00,,,0.00,WeatherCatV1.02B3,2013-01-28 14:38:00,
2013-01-28 09:43:00,43.3,42.0,30.56,South,171,3.0,7.0,95,0.00,,,0.00,WeatherCatV1.02B3,2013-01-28 14:43:00,
2013-01-28 09:48:00,43.4,42.1,30.57,South,187,2.0,4.0,95,0.00,,,0.00,WeatherCatV1.02B3,2013-01-28 14:48:00,
2013-01-28 09:53:00,43.4,42.1,30.56,South,190,3.0,3.0,95,0.00,,,0.00,WeatherCatV1.02B3,2013-01-28 14:53:00,
2013-01-28 09:58:00,43.4,42.1,30.56,SSW,192,2.0,5.0,95,0.00,,,0.00,WeatherCatV1.02B3,2013-01-28 14:58:00,
2013-01-28 10:03:00,43.5,42.2,30.56,SSW,202,4.0,5.0,95,0.00,,,0.00,WeatherCatV1.02B3,2013-01-28 15:03:00,
2013-01-28 10:08:00,43.6,42.3,30.57,SSW,194,2.0,5.0,95,0.00,,,0.00,WeatherCatV1.02B3,2013-01-28 15:08:00,
2013-01-28 10:13:00,43.6,42.3,30.57,SSW,193,1.0,6.0,95,0.00,,,0.00,WeatherCatV1.02B3,2013-01-28 15:13:00,
2013-01-28 10:18:00,43.6,42.3,30.57,SSW,194,2.0,4.0,95,0.00,,,0.00,WeatherCatV1.02B3,2013-01-28 15:18:00,
2013-01-28 10:23:00,43.6,42.3,30.57,SSW,204,4.0,5.0,95,0.00,,,0.00,WeatherCatV1.02B3,2013-01-28 15:23:00,
2013-01-28 10:28:00,43.7,42.6,30.57,SSW,210,2.0,4.0,96,0.00,,,0.00,WeatherCatV1.02B3,2013-01-28 15:28:00,
2013-01-28 10:33:00,43.7,42.6,30.57,SSW,195,1.0,4.0,96,0.00,,,0.00,WeatherCatV1.02B3,2013-01-28 15:33:00,
2013-01-28 10:38:00,43.5,42.4,30.57,South,181,2.0,4.0,96,0.00,,,0.00,WeatherCatV1.02B3,2013-01-28 15:38:00,
2013-01-28 10:43:00,43.4,42.3,30.57,SSW,205,5.0,7.0,96,0.00,,,0.00,WeatherCatV1.02B3,2013-01-28 15:43:00,
2013-01-28 10:48:00,43.3,42.2,30.57,SSW,192,3.0,14.0,96,0.00,,,0.00,WeatherCatV1.02B3,2013-01-28 15:48:00,
2013-01-28 10:53:00,43.3,42.5,30.57,South,175,4.0,7.0,97,0.00,,,0.00,WeatherCatV1.02B3,2013-01-28 15:53:00,
2013-01-28 10:58:00,43.5,42.7,30.57,SSW,206,3.0,5.0,97,0.00,,,0.00,WeatherCatV1.02B3,2013-01-28 15:58:00,
2013-01-28 11:03:00,43.6,42.8,30.57,SW,225,0.0,5.0,97,0.00,,,0.00,WeatherCatV1.02B3,2013-01-28 16:03:00,
2013-01-28 11:08:00,43.6,42.8,30.56,SSE,159,5.0,6.0,97,0.00,,,0.00,WeatherCatV1.02B3,2013-01-28 16:08:00,
2013-01-28 11:13:00,43.6,42.8,30.56,SSW,192,3.0,6.0,97,0.00,,,0.00,WeatherCatV1.02B3,2013-01-28 16:13:00,
2013-01-28 11:18:00,43.7,42.9,30.56,SSE,160,3.0,6.0,97,0.00,,,0.00,WeatherCatV1.02B3,2013-01-28 16:18:00,
2013-01-28 11:23:00,43.5,42.7,30.56,SSW,192,3.0,5.0,97,0.00,,,0.00,WeatherCatV1.02B3,2013-01-28 16:23:00,
2013-01-28 11:28:00,43.4,42.6,30.56,SSE,161,5.0,7.0,97,0.00,,,0.00,WeatherCatV1.02B3,2013-01-28 16:28:00,
2013-01-28 11:33:00,43.5,42.7,30.55,SW,221,3.0,5.0,97,0.00,,,0.00,WeatherCatV1.02B3,2013-01-28 16:33:00,
2013-01-28 11:38:00,44.3,43.8,30.55,South,178,4.0,6.0,98,0.00,,,0.00,WeatherCatV1.02B3,2013-01-28 16:38:00,
2013-01-28 11:43:00,45.0,44.5,30.54,SSW,203,6.0,7.0,98,0.00,,,0.00,WeatherCatV1.02B3,2013-01-28 16:43:00,
2013-01-28 11:48:00,45.1,44.6,30.54,South,171,5.0,8.0,98,0.00,,,0.00,WeatherCatV1.02B3,2013-01-28 16:48:00,
2013-01-28 11:53:00,45.6,45.1,30.54,SSE,161,4.0,5.0,98,0.00,,,0.00,WeatherCatV1.02B3,2013-01-28 16:53:00,
2013-01-28 11:58:00,45.4,44.6,30.54,SSW,212,1.0,4.0,97,0.00,,,0.00,WeatherCatV1.02B3,2013-01-28 16:58:00,
2013-01-28 12:03:00,45.3,44.2,30.53,South,170,4.0,6.0,96,0.00,,,0.00,WeatherCatV1.02B3,2013-01-28 17:03:00,
2013-01-28 12:08:00,45.1,44.0,30.53,South,174,4.0,5.0,96,0.00,,,0.00,WeatherCatV1.02B3,2013-01-28 17:08:00,
2013-01-28 12:13:00,45.6,44.8,30.52,South,174,3.0,4.0,97,0.00,,,0.00,WeatherCatV1.02B3,2013-01-28 17:13:00,
2013-01-28 12:18:00,46.2,45.4,30.52,South,188,3.0,8.0,97,0.00,,,0.00,WeatherCatV1.02B3,2013-01-28 17:18:00,
2013-01-28 12:23:00,46.5,45.1,30.51,SW,219,1.0,4.0,95,0.00,,,0.00,WeatherCatV1.02B3,2013-01-28 17:23:00,
2013-01-28 12:28:00,47.0,45.6,30.51,South,188,3.0,6.0,95,0.00,,,0.00,WeatherCatV1.02B3,2013-01-28 17:28:00,
2013-01-28 12:33:00,47.5,45.9,30.51,SW,221,3.0,14.0,94,0.00,,,0.00,WeatherCatV1.02B3,2013-01-28 17:33:00,
2013-01-28 12:38:00,48.0,46.1,30.50,SSW,202,0.0,7.0,93,0.00,,,0.00,WeatherCatV1.02B3,2013-01-28 17:38:00,
2013-01-28 12:43:00,48.6,46.4,30.50,WSW,245,3.0,3.0,92,0.00,,,0.00,WeatherCatV1.02B3,2013-01-28 17:43:00,
2013-01-28 12:48:00,49.1,46.3,30.50,South,175,0.0,4.0,90,0.00,,,0.00,WeatherCatV1.02B3,2013-01-28 17:48:00,
2013-01-28 12:53:00,49.2,46.4,30.49,ESE,119,0.0,3.0,90,0.00,,,0.00,WeatherCatV1.02B3,2013-01-28 17:53:00,
2013-01-28 12:58:00,49.4,46.6,30.49,SSW,210,3.0,9.0,90,0.00,,,0.00,WeatherCatV1.02B3,2013-01-28 17:58:00,
2013-01-28 13:03:00,49.8,46.7,30.48,South,186,2.0,4.0,89,0.00,,,0.00,WeatherCatV1.02B3,2013-01-28 18:03:00,
2013-01-28 13:08:00,50.3,46.9,30.47,South,181,0.0,4.0,88,0.00,,,0.00,WeatherCatV1.02B3,2013-01-28 18:08:00,
2013-01-28 13:13:00,50.8,47.1,30.47,West,277,4.0,5.0,87,0.00,,,0.00,WeatherCatV1.02B3,2013-01-28 18:13:00,
2013-01-28 13:18:00,51.2,47.2,30.46,SSW,192,3.0,5.0,86,0.00,,,0.00,WeatherCatV1.02B3,2013-01-28 18:18:00,
2013-01-28 13:23:00,51.5,47.1,30.45,SSW,210,3.0,4.0,85,0.00,,,0.00,WeatherCatV1.02B3,2013-01-28 18:23:00,
2013-01-28 13:28:00,51.7,47.3,30.45,SSW,203,0.0,7.0,85,0.00,,,0.00,WeatherCatV1.02B3,2013-01-28 18:28:00,
2013-01-28 13:33:00,51.6,47.2,30.44,NW,320,0.0,11.0,85,0.00,,,0.00,WeatherCatV1.02B3,2013-01-28 18:33:00,
2013-01-28 13:38:00,51.5,47.1,30.44,SW,221,1.0,5.0,85,0.00,,,0.00,WeatherCatV1.02B3,2013-01-28 18:38:00,
2013-01-28 13:43:00,51.5,47.5,30.44,South,180,1.0,4.0,86,0.00,,,0.00,WeatherCatV1.02B3,2013-01-28 18:43:00,
2013-01-28 13:48:00,51.9,47.5,30.43,SSW,210,14.0,14.0,85,0.00,,,0.00,WeatherCatV1.02B3,2013-01-28 18:48:00,
2013-01-28 13:53:00,52.5,47.5,30.43,WNW,286,1.0,6.0,83,0.00,,,0.00,WeatherCatV1.02B3,2013-01-28 18:53:00,
2013-01-28 13:58:00,53.1,47.8,30.43,SSW,207,4.0,9.0,82,0.00,,,0.00,WeatherCatV1.02B3,2013-01-28 18:58:00,
2013-01-28 14:03:00,53.6,47.6,30.42,SSW,198,2.0,3.0,80,0.00,,,0.00,WeatherCatV1.02B3,2013-01-28 19:03:00,
2013-01-28 14:08:00,53.8,47.4,30.43,WNW,290,1.0,6.0,79,0.00,,,0.00,WeatherCatV1.02B3,2013-01-28 19:08:00,
2013-01-28 14:13:00,54.1,47.0,30.42,SSW,199,4.0,4.0,77,0.00,,,0.00,WeatherCatV1.02B3,2013-01-28 19:13:00,
2013-01-28 14:18:00,54.3,46.5,30.42,North,350,7.0,7.0,75,0.00,,,0.00,WeatherCatV1.02B3,2013-01-28 19:18:00,
2013-01-28 14:23:00,54.5,46.7,30.42,NW,306,4.0,11.0,75,0.00,,,0.00,WeatherCatV1.02B3,2013-01-28 19:23:00,
2013-01-28 14:28:00,54.6,46.5,30.42,NW,305,1.0,4.0,74,0.00,,,0.00,WeatherCatV1.02B3,2013-01-28 19:28:00,
2013-01-28 14:33:00,54.9,46.4,30.42,South,175,0.0,7.0,73,0.00,,,0.00,WeatherCatV1.02B3,2013-01-28 19:33:00,
2013-01-28 14:38:00,55.1,46.6,30.42,WNW,302,0.0,6.0,73,0.00,,,0.00,WeatherCatV1.02B3,2013-01-28 19:38:00,
2013-01-28 14:43:00,55.0,46.5,30.42,West,281,2.0,12.0,73,0.00,,,0.00,WeatherCatV1.02B3,2013-01-28 19:43:00,
2013-01-28 14:48:00,55.1,46.6,30.42,WNW,303,0.0,4.0,73,0.00,,,0.00,WeatherCatV1.02B3,2013-01-28 19:48:00,
2013-01-28 14:53:00,55.3,46.8,30.42,SW,218,2.0,11.0,73,0.00,,,0.00,WeatherCatV1.02B3,2013-01-28 19:53:00,
2013-01-28 14:58:00,55.4,46.5,30.42,ENE,62,0.0,0.0,72,0.00,,,0.00,WeatherCatV1.02B3,2013-01-28 19:58:00,
2013-01-28 15:03:00,55.5,46.6,30.42,WSW,244,7.0,7.0,72,0.00,,,0.00,WeatherCatV1.02B3,2013-01-28 20:03:00,
2013-01-28 15:08:00,55.3,46.4,30.42,WSW,237,1.0,3.0,72,0.00,,,0.00,WeatherCatV1.02B3,2013-01-28 20:08:00,
2013-01-28 15:13:00,54.9,46.4,30.42,South,175,0.0,5.0,73,0.00,,,0.00,WeatherCatV1.02B3,2013-01-28 20:13:00,
2013-01-28 15:18:00,54.4,46.6,30.41,SW,222,2.0,2.0,75,0.00,,,0.00,WeatherCatV1.02B3,2013-01-28 20:18:00,
2013-01-28 15:23:00,54.2,46.4,30.41,SW,221,7.0,11.0,75,0.00,,,0.00,WeatherCatV1.02B3,2013-01-28 20:23:00,
2013-01-28 15:28:00,54.2,46.4,30.41,WSW,242,2.0,3.0,75,0.00,,,0.00,WeatherCatV1.02B3,2013-01-28 20:28:00,
2013-01-28 15:33:00,54.5,46.4,30.41,SSE,153,1.0,5.0,74,0.00,,,0.00,WeatherCatV1.02B3,2013-01-28 20:33:00,
2013-01-28 15:38:00,54.8,46.7,30.41,South,183,4.0,4.0,74,0.00,,,0.00,WeatherCatV1.02B3,2013-01-28 20:38:00,
2013-01-28 15:43:00,55.1,47.0,30.41,WSW,254,3.0,4.0,74,0.00,,,0.00,WeatherCatV1.02B3,2013-01-28 20:43:00,
2013-01-28 15:48:00,55.3,46.8,30.41,SW,227,0.0,9.0,73,0.00,,,0.00,WeatherCatV1.02B3,2013-01-28 20:48:00,
2013-01-28 15:53:00,55.3,46.4,30.41,SW,234,0.0,2.0,72,0.00,,,0.00,WeatherCatV1.02B3,2013-01-28 20:53:00,
2013-01-28 15:58:00,55.2,46.7,30.41,WNW,285,0.0,1.0,73,0.00,,,0.00,WeatherCatV1.02B3,2013-01-28 20:58:00,
2013-01-28 16:03:00,55.0,46.5,30.41,WSW,245,4.0,6.0,73,0.00,,,0.00,WeatherCatV1.02B3,2013-01-28 21:03:00,
2013-01-28 16:08:00,54.8,46.3,30.41,SE,133,0.0,2.0,73,0.00,,,0.00,WeatherCatV1.02B3,2013-01-28 21:08:00,
2013-01-28 16:13:00,54.4,47.0,30.41,SSE,168,1.0,5.0,76,0.00,,,0.00,WeatherCatV1.02B3,2013-01-28 21:13:00,
2013-01-28 16:18:00,54.2,46.4,30.40,NE,56,0.0,1.0,75,0.00,,,0.00,WeatherCatV1.02B3,2013-01-28 21:18:00,
2013-01-28 16:23:00,54.1,46.4,30.40,WNW,292,0.0,5.0,75,0.00,,,0.00,WeatherCatV1.02B3,2013-01-28 21:23:00,
2013-01-28 16:28:00,54.1,46.4,30.41,NW,315,0.0,1.0,75,0.00,,,0.00,WeatherCatV1.02B3,2013-01-28 21:28:00,
2013-01-28 16:33:00,54.1,46.4,30.40,SW,233,0.0,6.0,75,0.00,,,0.00,WeatherCatV1.02B3,2013-01-28 21:33:00,
2013-01-28 16:38:00,54.1,46.4,30.40,West,259,0.0,1.0,75,0.00,,,0.00,WeatherCatV1.02B3,2013-01-28 21:38:00,
2013-01-28 16:43:00,53.9,46.2,30.40,South,190,0.0,2.0,75,0.00,,,0.00,WeatherCatV1.02B3,2013-01-28 21:43:00,
2013-01-28 16:48:00,53.8,46.4,30.40,SW,236,0.0,0.0,76,0.00,,,0.00,WeatherCatV1.02B3,2013-01-28 21:48:00,
2013-01-28 16:53:00,53.6,46.2,30.40,West,261,0.0,5.0,76,0.00,,,0.00,WeatherCatV1.02B3,2013-01-28 21:53:00,
2013-01-28 16:58:00,53.3,46.3,30.40,SSW,207,0.0,2.0,77,0.00,,,0.00,WeatherCatV1.02B3,2013-01-28 21:58:00,
2013-01-28 17:03:00,53.1,46.1,30.41,SSW,195,0.0,3.0,77,0.00,,,0.00,WeatherCatV1.02B3,2013-01-28 22:03:00,
2013-01-28 17:08:00,52.8,46.1,30.40,SW,220,0.0,7.0,78,0.00,,,0.00,WeatherCatV1.02B3,2013-01-28 22:08:00,
2013-01-28 17:13:00,52.7,46.4,30.40,SSE,153,0.0,1.0,79,0.00,,,0.00,WeatherCatV1.02B3,2013-01-28 22:13:00,
2013-01-28 17:18:00,52.6,46.3,30.40,SW,229,0.0,0.0,79,0.00,,,0.00,WeatherCatV1.02B3,2013-01-28 22:18:00,
2013-01-28 17:23:00,52.4,46.4,30.40,SSE,148,0.0,1.0,80,0.00,,,0.00,WeatherCatV1.02B3,2013-01-28 22:23:00,
2013-01-28 17:28:00,52.2,46.2,30.40,SSE,150,0.0,1.0,80,0.00,,,0.00,WeatherCatV1.02B3,2013-01-28 22:28:00,
2013-01-28 17:33:00,52.0,46.4,30.40,SE,140,0.0,2.0,81,0.00,,,0.00,WeatherCatV1.02B3,2013-01-28 22:33:00,
2013-01-28 17:38:00,51.7,46.1,30.40,South,184,0.0,3.0,81,0.00,,,0.00,WeatherCatV1.02B3,2013-01-28 22:38:00,
2013-01-28 17:43:00,51.5,46.2,30.40,South,184,0.0,1.0,82,0.00,,,0.00,WeatherCatV1.02B3,2013-01-28 22:43:00,
2013-01-28 17:48:00,51.2,46.2,30.41,South,183,0.0,2.0,83,0.00,,,0.00,WeatherCatV1.02B3,2013-01-28 22:48:00,
2013-01-28 17:53:00,51.0,46.0,30.41,SSE,149,2.0,3.0,83,0.00,,,0.00,WeatherCatV1.02B3,2013-01-28 22:53:00,
2013-01-28 17:58:00,50.9,46.2,30.41,SSE,149,2.0,3.0,84,0.00,,,0.00,WeatherCatV1.02B3,2013-01-28 22:58:00,
2013-01-28 18:04:00,50.6,45.9,30.41,SSE,149,0.0,1.0,84,0.00,,,0.00,WeatherCatV1.02B3,2013-01-28 23:04:00,
2013-01-28 18:09:00,50.4,46.1,30.41,South,170,4.0,4.0,85,0.00,,,0.00,WeatherCatV1.02B3,2013-01-28 23:09:00,
2013-01-28 18:14:00,50.1,45.8,30.41,SSE,167,2.0,3.0,85,0.00,,,0.00,WeatherCatV1.02B3,2013-01-28 23:14:00,
2013-01-28 18:19:00,49.9,45.9,30.41,SSE,167,0.0,3.0,86,0.00,,,0.00,WeatherCatV1.02B3,2013-01-28 23:19:00,
2013-01-28 18:24:00,49.5,45.5,30.41,SSE,167,2.0,4.0,86,0.00,,,0.00,WeatherCatV1.02B3,2013-01-28 23:24:00,
2013-01-28 18:29:00,49.2,45.5,30.41,SSE,167,1.0,3.0,87,0.00,,,0.00,WeatherCatV1.02B3,2013-01-28 23:29:00,
2013-01-28 18:34:00,49.2,45.8,30.41,SSE,167,0.0,3.0,88,0.00,,,0.00,WeatherCatV1.02B3,2013-01-28 23:34:00,
2013-01-28 18:39:00,49.0,45.6,30.41,SSE,167,3.0,4.0,88,0.00,,,0.00,WeatherCatV1.02B3,2013-01-28 23:39:00,
2013-01-28 18:44:00,49.0,45.9,30.41,SSE,167,2.0,5.0,89,0.00,,,0.00,WeatherCatV1.02B3,2013-01-28 23:44:00,
2013-01-28 18:49:00,48.8,45.7,30.42,SSE,167,3.0,4.0,89,0.00,,,0.00,WeatherCatV1.02B3,2013-01-28 23:49:00,
2013-01-28 18:54:00,48.8,45.7,30.42,SSE,167,3.0,3.0,89,0.00,,,0.00,WeatherCatV1.02B3,2013-01-28 23:54:00,
2013-01-28 18:59:00,48.7,45.6,30.41,SE,136,2.0,4.0,89,0.00,,,0.00,WeatherCatV1.02B3,2013-01-28 23:59:00,
2013-01-28 19:04:00,48.6,45.5,30.41,SE,136,2.0,2.0,89,0.00,,,0.00,WeatherCatV1.02B3,2013-01-29 00:04:00,
2013-01-28 19:09:00,48.3,45.5,30.41,South,171,3.0,4.0,90,0.00,,,0.00,WeatherCatV1.02B3,2013-01-29 00:09:00,
2013-01-28 19:14:00,48.4,45.6,30.41,South,171,3.0,3.0,90,0.00,,,0.00,WeatherCatV1.02B3,2013-01-29 00:14:00,
2013-01-28 19:19:00,48.3,45.5,30.42,South,170,2.0,3.0,90,0.00,,,0.00,WeatherCatV1.02B3,2013-01-29 00:19:00,
2013-01-28 19:24:00,48.2,45.4,30.42,South,170,2.0,3.0,90,0.00,,,0.00,WeatherCatV1.02B3,2013-01-29 00:24:00,
2013-01-28 19:29:00,48.0,45.2,30.41,South,170,0.0,0.0,90,0.00,,,0.00,WeatherCatV1.02B3,2013-01-29 00:29:00,
2013-01-28 19:34:00,47.9,45.1,30.41,South,170,0.0,2.0,90,0.00,,,0.00,WeatherCatV1.02B3,2013-01-29 00:34:00,
2013-01-28 19:39:00,47.9,44.8,30.41,SSE,168,1.0,3.0,89,0.00,,,0.00,WeatherCatV1.02B3,2013-01-29 00:39:00,
2013-01-28 19:44:00,48.2,44.5,30.41,WSW,237,3.0,3.0,87,0.00,,,0.00,WeatherCatV1.02B3,2013-01-29 00:44:00,
2013-01-28 19:49:00,48.7,44.7,30.41,SSW,211,0.0,3.0,86,0.00,,,0.00,WeatherCatV1.02B3,2013-01-29 00:49:00,
2013-01-28 19:54:00,49.2,44.6,30.41,SSW,211,0.0,0.0,84,0.00,,,0.00,WeatherCatV1.02B3,2013-01-29 00:54:00,
2013-01-28 19:59:00,49.5,44.6,30.41,SSW,206,1.0,2.0,83,0.00,,,0.00,WeatherCatV1.02B3,2013-01-29 00:59:00,
2013-01-28 20:04:00,49.7,44.4,30.40,SSW,206,0.0,0.0,82,0.00,,,0.00,WeatherCatV1.02B3,2013-01-29 01:04:00,
2013-01-28 20:09:00,49.4,44.1,30.41,SSW,203,0.0,0.0,82,0.00,,,0.00,WeatherCatV1.02B3,2013-01-29 01:09:00,
2013-01-28 20:14:00,48.9,44.3,30.40,SSW,203,0.0,0.0,84,0.00,,,0.00,WeatherCatV1.02B3,2013-01-29 01:14:00,
2013-01-28 20:19:00,48.8,44.2,30.40,SW,234,0.0,0.0,84,0.00,,,0.00,WeatherCatV1.02B3,2013-01-29 01:19:00,
2013-01-28 20:24:00,49.0,44.7,30.40,South,188,0.0,3.0,85,0.00,,,0.00,WeatherCatV1.02B3,2013-01-29 01:24:00,
2013-01-28 20:29:00,49.2,44.9,30.40,South,187,0.0,0.0,85,0.00,,,0.00,WeatherCatV1.02B3,2013-01-29 01:29:00,
2013-01-28 20:34:00,49.2,44.6,30.40,South,188,0.0,0.0,84,0.00,,,0.00,WeatherCatV1.02B3,2013-01-29 01:34:00,
2013-01-28 20:39:00,49.4,44.8,30.40,South,188,0.0,0.0,84,0.00,,,0.00,WeatherCatV1.02B3,2013-01-29 01:39:00,
2013-01-28 20:44:00,49.6,45.0,30.40,South,187,0.0,0.0,84,0.00,,,0.00,WeatherCatV1.02B3,2013-01-29 01:44:00,
2013-01-28 20:49:00,49.8,44.8,30.40,South,187,0.0,0.0,83,0.00,,,0.00,WeatherCatV1.02B3,2013-01-29 01:49:00,
2013-01-28 20:54:00,49.7,44.7,30.40,South,188,0.0,0.0,83,0.00,,,0.00,WeatherCatV1.02B3,2013-01-29 01:54:00,
2013-01-28 20:59:00,49.6,44.7,30.40,South,188,0.0,0.0,83,0.00,,,0.00,WeatherCatV1.02B3,2013-01-29 01:59:00,
2013-01-28 21:04:00,49.7,44.7,30.40,South,187,0.0,1.0,83,0.00,,,0.00,WeatherCatV1.02B3,2013-01-29 02:04:00,
2013-01-28 21:09:00,50.0,44.7,30.40,NW,319,0.0,2.0,82,0.00,,,0.00,WeatherCatV1.02B3,2013-01-29 02:09:00,
2013-01-28 21:14:00,50.2,44.9,30.40,WSW,252,0.0,3.0,82,0.00,,,0.00,WeatherCatV1.02B3,2013-01-29 02:14:00,
2013-01-28 21:19:00,50.6,45.0,30.40,WNW,283,2.0,4.0,81,0.00,,,0.00,WeatherCatV1.02B3,2013-01-29 02:19:00,
2013-01-28 21:24:00,50.9,45.3,30.40,WNW,290,6.0,6.0,81,0.00,,,0.00,WeatherCatV1.02B3,2013-01-29 02:24:00,
2013-01-28 21:29:00,51.0,45.4,30.39,NW,311,0.0,3.0,81,0.00,,,0.00,WeatherCatV1.02B3,2013-01-29 02:29:00,
2013-01-28 21:34:00,51.2,45.2,30.39,West,273,3.0,5.0,80,0.00,,,0.00,WeatherCatV1.02B3,2013-01-29 02:34:00,
2013-01-28 21:39:00,51.2,45.2,30.39,West,277,0.0,0.0,80,0.00,,,0.00,WeatherCatV1.02B3,2013-01-29 02:39:00,
2013-01-28 21:44:00,51.1,45.1,30.39,South,173,0.0,0.0,80,0.00,,,0.00,WeatherCatV1.02B3,2013-01-29 02:44:00,
2013-01-28 21:49:00,50.9,45.0,30.39,WNW,288,0.0,2.0,80,0.00,,,0.00,WeatherCatV1.02B3,2013-01-29 02:49:00,
2013-01-28 21:54:00,50.7,44.8,30.39,South,179,0.0,0.0,80,0.00,,,0.00,WeatherCatV1.02B3,2013-01-29 02:54:00,
2013-01-28 21:59:00,50.6,44.7,30.39,South,180,0.0,0.0,80,0.00,,,0.00,WeatherCatV1.02B3,2013-01-29 02:59:00,
2013-01-28 22:04:00,50.4,44.8,30.39,South,180,0.0,0.0,81,0.00,,,0.00,WeatherCatV1.02B3,2013-01-29 03:04:00,
2013-01-28 22:09:00,50.2,44.6,30.39,SW,236,0.0,1.0,81,0.00,,,0.00,WeatherCatV1.02B3,2013-01-29 03:09:00,
2013-01-28 22:14:00,50.1,44.5,30.39,WSW,238,0.0,1.0,81,0.00,,,0.00,WeatherCatV1.02B3,2013-01-29 03:14:00,
2013-01-28 22:19:00,50.1,44.5,30.39,West,277,0.0,0.0,81,0.00,,,0.00,WeatherCatV1.02B3,2013-01-29 03:19:00,
2013-01-28 22:24:00,50.2,44.3,30.39,SSW,201,0.0,1.0,80,0.00,,,0.00,WeatherCatV1.02B3,2013-01-29 03:24:00,
2013-01-28 22:29:00,50.2,44.3,30.39,South,181,0.0,2.0,80,0.00,,,0.00,WeatherCatV1.02B3,2013-01-29 03:29:00,
2013-01-28 22:34:00,50.1,44.2,30.38,South,180,0.0,0.0,80,0.00,,,0.00,WeatherCatV1.02B3,2013-01-29 03:34:00,
2013-01-28 22:39:00,50.1,44.2,30.39,WNW,298,0.0,3.0,80,0.00,,,0.00,WeatherCatV1.02B3,2013-01-29 03:39:00,
2013-01-28 22:44:00,50.2,44.3,30.38,WNW,295,0.0,1.0,80,0.00,,,0.00,WeatherCatV1.02B3,2013-01-29 03:44:00,
2013-01-28 22:49:00,50.3,44.4,30.39,WNW,296,0.0,0.0,80,0.00,,,0.00,WeatherCatV1.02B3,2013-01-29 03:49:00,
2013-01-28 22:54:00,50.5,44.2,30.38,WNW,296,0.0,1.0,79,0.00,,,0.00,WeatherCatV1.02B3,2013-01-29 03:54:00,
2013-01-28 22:59:00,50.7,44.1,30.38,WNW,298,0.0,1.0,78,0.00,,,0.00,WeatherCatV1.02B3,2013-01-29 03:59:00,
2013-01-28 23:04:00,50.5,43.2,30.38,South,190,1.0,1.0,76,0.00,,,0.00,WeatherCatV1.02B3,2013-01-29 04:04:00,
2013-01-28 23:09:00,50.6,42.3,30.38,SW,219,0.0,0.0,73,0.00,,,0.00,WeatherCatV1.02B3,2013-01-29 04:09:00,
2013-01-28 23:14:00,50.6,41.5,30.38,SW,219,0.0,1.0,71,0.00,,,0.00,WeatherCatV1.02B3,2013-01-29 04:14:00,
2013-01-28 23:19:00,50.5,41.8,30.38,SW,219,2.0,2.0,72,0.00,,,0.00,WeatherCatV1.02B3,2013-01-29 04:19:00,
2013-01-28 23:24:00,50.6,42.6,30.39,SW,219,0.0,0.0,74,0.00,,,0.00,WeatherCatV1.02B3,2013-01-29 04:24:00,
2013-01-28 23:29:00,50.3,42.7,30.38,SW,219,0.0,1.0,75,0.00,,,0.00,WeatherCatV1.02B3,2013-01-29 04:29:00,
2013-01-28 23:34:00,49.8,42.5,30.38,SW,219,0.0,3.0,76,0.00,,,0.00,WeatherCatV1.02B3,2013-01-29 04:34:00,
2013-01-28 23:39:00,49.7,42.4,30.38,SSE,160,0.0,3.0,76,0.00,,,0.00,WeatherCatV1.02B3,2013-01-29 04:39:00,
2013-01-28 23:44:00,50.3,41.6,30.38,SSE,165,0.0,1.0,72,0.00,,,0.00,WeatherCatV1.02B3,2013-01-29 04:44:00,
2013-01-28 23:49:00,50.6,41.5,30.38,SSE,164,0.0,0.0,71,0.00,,,0.00,WeatherCatV1.02B3,2013-01-29 04:49:00,
2013-01-28 23:54:00,50.6,41.2,30.38,SSE,165,0.0,3.0,70,0.00,,,0.00,WeatherCatV1.02B3,2013-01-29 04:54:00,
2013-01-28 23:59:00,50.6,40.8,30.38,NW,314,0.0,0.0,69,0.00,,,0.00,WeatherCatV1.02B3,2013-01-29 04:59:00,